createdAt,value
2023-05-12T00:01:14.434Z,14.67
2023-05-12T00:03:41.905Z,14.39
2023-05-12T00:06:08.784Z,14.26
2023-05-12T00:08:35.503Z,14.61
2023-05-12T00:11:02.442Z,14.76
2023-05-12T00:13:29.207Z,14.91
2023-05-12T00:15:59.366Z,15.03
2023-05-12T00:18:26.565Z,14.96
2023-05-12T00:20:54.831Z,15.04
2023-05-12T00:23:22.819Z,15.02
2023-05-12T00:25:50.150Z,14.93
2023-05-12T00:28:18.058Z,15.05
2023-05-12T00:30:44.904Z,15.03
2023-05-12T00:33:11.520Z,15.02
2023-05-12T00:35:38.116Z,15.06
2023-05-12T00:38:04.800Z,15.27
2023-05-12T00:40:34.548Z,15.36
2023-05-12T00:43:01.602Z,14.96
2023-05-12T00:45:29.929Z,15.23
2023-05-12T00:47:57.407Z,15.17
2023-05-12T00:52:58.664Z,15.05
2023-05-12T00:55:25.823Z,14.87
2023-05-12T00:57:52.491Z,15.38
2023-05-12T01:00:25.867Z,15.08
2023-05-12T01:02:52.865Z,15.43
2023-05-12T01:05:19.660Z,15.37
2023-05-12T01:07:46.952Z,15.42
2023-05-12T01:10:21.266Z,15.28
2023-05-12T01:12:48.504Z,15.52
2023-05-12T01:15:16.491Z,15.46
2023-05-12T01:17:51.021Z,15.43
2023-05-12T01:20:19.026Z,15.38
2023-05-12T01:22:48.183Z,15.07
2023-05-12T01:25:15.932Z,15.44
2023-05-12T01:27:43.230Z,15.51
2023-05-12T01:30:12.170Z,15.54
2023-05-12T01:32:40.622Z,15.54
2023-05-12T01:35:07.534Z,15.23
2023-05-12T01:37:34.121Z,15.62
2023-05-12T01:40:00.931Z,15.61
2023-05-12T01:42:27.989Z,15.64
2023-05-12T01:44:54.677Z,15.38
2023-05-12T01:47:21.772Z,15.60
2023-05-12T01:49:48.702Z,15.66
2023-05-12T01:52:15.422Z,15.65
2023-05-12T01:54:41.953Z,15.67
2023-05-12T01:57:08.578Z,15.64
2023-05-12T01:59:35.118Z,15.57
2023-05-12T02:02:01.712Z,15.56
2023-05-12T02:04:28.394Z,15.67
2023-05-12T02:06:54.966Z,15.67
2023-05-12T02:09:23.041Z,15.59
2023-05-12T02:11:49.696Z,15.74
2023-05-12T02:14:16.330Z,15.70
2023-05-12T02:16:43.145Z,15.71
2023-05-12T02:19:09.795Z,15.27
2023-05-12T02:21:36.558Z,15.48
2023-05-12T02:24:03.205Z,15.56
2023-05-12T02:26:29.818Z,15.75
2023-05-12T02:28:56.428Z,15.38
2023-05-12T02:31:22.980Z,15.55
2023-05-12T02:33:50.982Z,15.69
2023-05-12T02:36:17.541Z,15.78
2023-05-12T02:38:44.143Z,15.89
2023-05-12T02:41:10.773Z,15.80
2023-05-12T02:43:37.351Z,15.78
2023-05-12T02:46:03.960Z,15.84
2023-05-12T02:48:30.559Z,15.90
2023-05-12T02:50:57.533Z,15.85
2023-05-12T02:53:24.267Z,15.89
2023-05-12T02:55:51.261Z,15.47
2023-05-12T02:58:17.867Z,15.43
2023-05-12T03:00:44.602Z,15.39
2023-05-12T03:03:11.363Z,15.81
2023-05-12T03:05:37.986Z,15.76
2023-05-12T03:08:04.759Z,15.78
2023-05-12T03:10:31.603Z,15.52
2023-05-12T03:12:58.167Z,15.68
2023-05-12T03:15:24.766Z,15.84
2023-05-12T03:17:51.486Z,15.83
2023-05-12T03:20:18.447Z,15.53
2023-05-12T03:22:45.249Z,15.83
2023-05-12T03:25:12.572Z,15.77
2023-05-12T03:27:39.155Z,15.79
2023-05-12T03:30:06.278Z,15.79
2023-05-12T03:32:32.961Z,15.85
2023-05-12T03:34:59.878Z,15.96
2023-05-12T03:37:26.501Z,15.59
2023-05-12T03:39:56.276Z,15.90
2023-05-12T03:42:24.227Z,15.10
2023-05-12T03:44:51.972Z,15.86
2023-05-12T03:47:18.592Z,15.62
2023-05-12T03:49:45.480Z,15.63
2023-05-12T03:52:12.778Z,15.92
2023-05-12T03:54:39.374Z,16.00
2023-05-12T03:57:06.661Z,15.87
2023-05-12T03:59:33.330Z,15.87
2023-05-12T04:01:59.961Z,16.00
2023-05-12T04:04:26.636Z,16.00
2023-05-12T04:06:53.291Z,16.07
2023-05-12T04:09:21.460Z,15.96
2023-05-12T04:11:48.007Z,16.00
2023-05-12T04:14:14.576Z,16.06
2023-05-12T04:16:41.462Z,16.15
2023-05-12T04:19:08.261Z,16.19
2023-05-12T04:21:35.112Z,16.09
2023-05-12T04:24:01.645Z,16.13
2023-05-12T04:26:28.295Z,16.13
2023-05-12T04:28:54.837Z,16.13
2023-05-12T04:31:21.450Z,16.06
2023-05-12T04:33:48.564Z,16.14
2023-05-12T04:36:15.312Z,15.99
2023-05-12T04:38:42.107Z,16.25
2023-05-12T04:41:09.393Z,16.29
2023-05-12T04:46:05.893Z,16.31
2023-05-12T04:48:32.489Z,16.16
2023-05-12T04:51:00.446Z,16.54
2023-05-12T04:53:34.777Z,16.13
2023-05-12T04:56:02.095Z,16.37
2023-05-12T04:58:28.777Z,16.45
2023-05-12T05:00:55.409Z,16.34
2023-05-12T05:03:22.709Z,16.40
2023-05-12T05:05:49.418Z,16.46
2023-05-12T05:08:16.007Z,16.79
2023-05-12T05:10:42.627Z,16.74
2023-05-12T05:13:09.206Z,16.63
2023-05-12T05:15:35.817Z,16.83
2023-05-12T05:18:02.522Z,16.84
2023-05-12T05:20:29.503Z,17.00
2023-05-12T05:22:56.463Z,16.68
2023-05-12T05:25:23.112Z,16.83
2023-05-12T05:27:49.905Z,16.92
2023-05-12T05:30:16.873Z,16.87
2023-05-12T05:32:43.579Z,16.87
2023-05-12T05:35:10.286Z,16.99
2023-05-12T05:37:37.249Z,17.29
2023-05-12T05:40:04.969Z,17.19
2023-05-12T05:42:31.591Z,17.00
2023-05-12T05:44:58.196Z,17.12
2023-05-12T05:47:24.861Z,17.31
2023-05-12T05:49:51.590Z,17.55
2023-05-12T05:52:18.233Z,17.33
2023-05-12T05:54:44.877Z,17.64
2023-05-12T05:57:11.743Z,17.75
2023-05-12T05:59:38.598Z,17.70
2023-05-12T06:02:05.601Z,17.76
2023-05-12T06:04:32.247Z,17.98
2023-05-12T06:06:58.847Z,17.96
2023-05-12T06:09:25.425Z,18.11
2023-05-12T06:11:52.119Z,18.28
2023-05-12T06:14:18.682Z,18.44
2023-05-12T06:16:45.477Z,18.45
2023-05-12T06:19:12.816Z,18.45
2023-05-12T06:21:39.558Z,18.64
2023-05-12T06:24:06.670Z,18.53
2023-05-12T06:26:33.245Z,18.76
2023-05-12T06:28:59.861Z,19.05
2023-05-12T06:31:26.602Z,19.12
2023-05-12T06:33:53.298Z,19.06
2023-05-12T06:36:19.867Z,19.00
2023-05-12T06:38:46.473Z,19.26
2023-05-12T06:41:13.066Z,19.13
2023-05-12T06:43:39.933Z,18.47
2023-05-12T06:46:07.117Z,19.57
2023-05-12T06:48:33.757Z,19.46
2023-05-12T06:51:00.446Z,19.62
2023-05-12T06:53:27.502Z,19.74
2023-05-12T06:55:55.232Z,19.59
2023-05-12T06:58:22.330Z,19.83
2023-05-12T07:00:48.967Z,19.95
2023-05-12T07:03:15.715Z,20.11
2023-05-12T07:05:42.510Z,20.27
2023-05-12T07:08:09.118Z,20.20
2023-05-12T07:10:36.100Z,20.39
2023-05-12T07:13:02.762Z,20.48
2023-05-12T07:15:31.913Z,20.62
2023-05-12T07:17:59.416Z,20.57
2023-05-12T07:20:26.285Z,20.45
2023-05-12T07:22:54.902Z,20.79
2023-05-12T07:25:22.301Z,20.72
2023-05-12T07:27:50.127Z,21.02
2023-05-12T07:30:17.300Z,21.12
2023-05-12T07:32:43.907Z,21.27
2023-05-12T07:35:10.802Z,21.48
2023-05-12T07:37:38.260Z,21.61
2023-05-12T07:40:05.288Z,21.57
2023-05-12T07:42:31.881Z,21.65
2023-05-12T07:44:58.667Z,21.73
2023-05-12T07:47:25.742Z,21.89
2023-05-12T07:49:52.439Z,22.00
2023-05-12T07:52:19.160Z,22.01
2023-05-12T07:54:45.920Z,22.16
2023-05-12T07:57:12.565Z,22.36
2023-05-12T07:59:39.200Z,22.23
2023-05-12T08:02:05.892Z,22.49
2023-05-12T08:04:32.597Z,22.54
2023-05-12T08:06:59.212Z,22.75
2023-05-12T08:09:25.925Z,23.06
2023-05-12T08:11:52.567Z,22.82
2023-05-12T08:14:19.224Z,23.00
2023-05-12T08:16:46.678Z,23.34
2023-05-12T08:19:14.201Z,23.44
2023-05-12T08:21:41.072Z,23.15
2023-05-12T08:24:07.758Z,23.60
2023-05-12T08:26:34.352Z,23.75
2023-05-12T08:29:01.716Z,23.68
2023-05-12T08:31:28.706Z,23.55
2023-05-12T08:34:08.985Z,23.59
2023-05-12T08:36:36.913Z,23.49
2023-05-12T08:39:04.453Z,23.47
2023-05-12T08:41:44.840Z,23.10
2023-05-12T08:44:12.425Z,23.43
2023-05-12T08:46:39.264Z,23.30
2023-05-12T08:49:09.819Z,23.21
2023-05-12T08:51:38.255Z,23.18
2023-05-12T08:54:06.854Z,23.33
2023-05-12T08:59:03.447Z,23.19
2023-05-12T09:01:30.622Z,22.97
2023-05-12T09:03:57.563Z,23.22
2023-05-12T09:06:24.278Z,23.27
2023-05-12T09:08:51.509Z,23.46
2023-05-12T09:11:20.368Z,23.48
2023-05-12T09:14:00.433Z,23.53
2023-05-12T09:16:29.805Z,22.34
2023-05-12T09:18:58.236Z,23.66
2023-05-12T09:21:26.634Z,23.41
2023-05-12T09:23:54.055Z,23.77
2023-05-12T09:26:22.843Z,23.83
2023-05-12T09:28:51.048Z,23.73
2023-05-12T09:31:25.181Z,23.71
2023-05-12T09:33:52.337Z,23.89
2023-05-12T09:36:20.456Z,24.09
2023-05-12T09:38:58.612Z,24.05
2023-05-12T09:41:25.776Z,24.07
2023-05-12T09:43:55.592Z,24.03
2023-05-12T09:46:22.627Z,24.28
2023-05-12T09:48:49.273Z,24.36
2023-05-12T09:51:19.217Z,24.25
2023-05-12T09:53:47.169Z,24.23
2023-05-12T09:56:14.989Z,24.29
2023-05-12T09:58:46.509Z,24.38
2023-05-12T10:01:22.661Z,24.47
2023-05-12T10:03:52.665Z,24.40
2023-05-12T10:06:25.278Z,24.34
2023-05-12T10:09:05.717Z,24.62
2023-05-12T10:11:32.613Z,24.75
2023-05-12T10:14:00.531Z,24.73
2023-05-12T10:16:30.620Z,24.81
2023-05-12T10:18:58.712Z,24.67
2023-05-12T10:21:26.346Z,25.07
2023-05-12T10:23:54.629Z,25.38
2023-05-12T10:26:22.024Z,25.53
2023-05-12T10:28:49.538Z,24.83
2023-05-12T10:31:16.973Z,25.05
2023-05-12T10:33:43.919Z,25.06
2023-05-12T10:36:20.677Z,25.42
2023-05-12T10:38:49.954Z,25.70
2023-05-12T10:41:17.309Z,26.06
2023-05-12T10:43:48.463Z,25.77
2023-05-12T10:46:15.279Z,26.18
2023-05-12T10:48:56.765Z,26.52
2023-05-12T10:51:26.725Z,26.50
2023-05-12T10:53:57.191Z,26.53
2023-05-12T10:56:26.454Z,27.07
2023-05-12T10:59:19.081Z,30.03
2023-05-12T11:02:06.751Z,32.06
2023-05-12T11:04:41.965Z,33.24
2023-05-12T11:07:12.206Z,33.25
2023-05-12T11:09:52.187Z,32.79
2023-05-12T11:12:26.542Z,32.49
2023-05-12T11:14:53.457Z,32.91
2023-05-12T11:17:20.221Z,32.75
2023-05-12T11:19:48.897Z,32.90
2023-05-12T11:22:20.548Z,32.46
2023-05-12T11:24:48.278Z,31.31
2023-05-12T11:27:22.680Z,30.75
2023-05-12T11:29:57.783Z,29.24
2023-05-12T11:32:24.463Z,28.30
2023-05-12T11:34:51.186Z,28.50
2023-05-12T11:37:21.379Z,29.02
2023-05-12T11:39:48.570Z,29.47
2023-05-12T11:42:17.747Z,29.70
2023-05-12T11:44:48.415Z,30.42
2023-05-12T11:47:16.372Z,30.48
2023-05-12T11:49:50.205Z,30.47
2023-05-12T11:52:19.605Z,29.63
2023-05-12T11:54:51.100Z,28.69
2023-05-12T11:57:36.443Z,28.02
2023-05-12T12:00:08.163Z,28.21
2023-05-12T12:02:36.934Z,31.28
2023-05-12T12:05:03.795Z,34.45
2023-05-12T12:07:32.085Z,35.28
2023-05-12T12:09:59.868Z,35.66
2023-05-12T12:12:26.570Z,35.62
2023-05-12T12:14:53.220Z,33.15
2023-05-12T12:17:19.958Z,31.98
2023-05-12T12:19:47.940Z,29.98
2023-05-12T12:22:14.685Z,32.09
2023-05-12T12:24:41.381Z,32.45
2023-05-12T12:27:07.979Z,32.31
2023-05-12T12:29:34.856Z,30.98
2023-05-12T12:32:01.464Z,29.63
2023-05-12T12:34:28.007Z,28.84
2023-05-12T12:36:54.640Z,28.47
2023-05-12T12:39:21.940Z,28.17
2023-05-12T12:41:48.605Z,27.77
2023-05-12T12:44:15.202Z,27.52
2023-05-12T12:46:42.336Z,29.34
2023-05-12T12:49:09.066Z,32.81
2023-05-12T12:51:45.687Z,36.08
2023-05-12T12:54:13.281Z,35.62
2023-05-12T12:56:39.862Z,34.53
2023-05-12T12:59:06.573Z,34.05
2023-05-12T13:01:34.053Z,36.08
2023-05-12T13:04:01.302Z,38.66
2023-05-12T13:06:29.417Z,38.98
2023-05-12T13:08:56.662Z,41.07
2023-05-12T13:11:23.351Z,42.98
2023-05-12T13:13:49.922Z,43.90
2023-05-12T13:16:16.698Z,44.70
2023-05-12T13:18:43.538Z,45.09
2023-05-12T13:21:10.282Z,45.85
2023-05-12T13:23:37.265Z,46.54
2023-05-12T13:26:04.032Z,45.82
2023-05-12T13:28:30.650Z,44.86
2023-05-12T13:30:57.388Z,45.24
2023-05-12T13:33:24.230Z,45.51
2023-05-12T13:35:50.825Z,45.67
2023-05-12T13:38:17.865Z,46.16
2023-05-12T13:40:44.522Z,45.01
2023-05-12T13:43:11.118Z,43.97
2023-05-12T13:45:37.789Z,41.15
2023-05-12T13:48:04.775Z,41.42
2023-05-12T13:50:33.586Z,39.40
2023-05-12T13:53:00.481Z,39.04
2023-05-12T13:55:27.526Z,39.24
2023-05-12T13:57:54.421Z,40.87
2023-05-12T14:00:21.214Z,42.41
2023-05-12T14:02:47.918Z,43.84
2023-05-12T14:05:15.004Z,45.10
2023-05-12T14:07:42.763Z,46.06
2023-05-12T14:10:10.314Z,46.44
2023-05-12T14:12:37.188Z,46.00
2023-05-12T14:15:29.629Z,46.04
2023-05-12T14:17:50.919Z,46.23
2023-05-12T14:20:17.584Z,47.79
2023-05-12T14:22:44.422Z,47.62
2023-05-12T14:25:11.012Z,48.20
2023-05-12T14:27:37.781Z,48.44
2023-05-12T14:30:06.111Z,48.07
2023-05-12T14:32:34.524Z,47.51
2023-05-12T14:35:01.155Z,46.84
2023-05-12T14:37:27.709Z,47.67
2023-05-12T14:39:56.800Z,46.24
2023-05-12T14:42:24.016Z,46.52
2023-05-12T14:44:50.566Z,44.85
2023-05-12T14:47:17.390Z,47.51
2023-05-12T14:49:45.629Z,47.38
2023-05-12T14:52:12.484Z,46.83
2023-05-12T14:54:39.052Z,46.22
2023-05-12T14:57:06.487Z,45.70
2023-05-12T14:59:33.194Z,45.20
2023-05-12T15:01:59.888Z,45.56
2023-05-12T15:04:27.748Z,45.16
2023-05-12T15:06:54.435Z,45.74
2023-05-12T15:09:21.040Z,44.10
2023-05-12T15:11:48.243Z,45.50
2023-05-12T15:14:14.913Z,45.72
2023-05-12T15:16:41.932Z,44.11
2023-05-12T15:19:08.934Z,45.22
2023-05-12T15:21:36.743Z,45.02
2023-05-12T15:24:07.188Z,44.99
2023-05-12T15:26:35.190Z,42.71
2023-05-12T15:29:02.904Z,42.42
2023-05-12T15:31:30.308Z,43.86
2023-05-12T15:33:57.818Z,43.78
2023-05-12T15:36:24.409Z,42.70
2023-05-12T15:38:51.011Z,44.19
2023-05-12T15:41:17.596Z,43.93
2023-05-12T15:43:44.284Z,43.71
2023-05-12T15:46:11.792Z,43.59
2023-05-12T15:48:39.628Z,43.79
2023-05-12T15:51:06.654Z,43.77
2023-05-12T15:53:33.666Z,43.09
2023-05-12T15:56:04.465Z,42.86
2023-05-12T15:58:31.662Z,41.90
2023-05-12T16:00:58.408Z,40.93
2023-05-12T16:03:25.258Z,41.42
2023-05-12T16:05:52.424Z,41.80
2023-05-12T16:08:19.142Z,40.92
2023-05-12T16:10:46.016Z,41.60
2023-05-12T16:13:13.949Z,40.79
2023-05-12T16:15:40.685Z,39.67
2023-05-12T16:18:10.888Z,39.77
2023-05-12T16:20:38.194Z,38.95
2023-05-12T16:23:04.949Z,37.54
2023-05-12T16:25:31.554Z,35.95
2023-05-12T16:27:58.254Z,34.24
2023-05-12T16:30:25.188Z,33.95
2023-05-12T16:32:52.350Z,32.75
2023-05-12T16:35:19.716Z,32.09
2023-05-12T16:37:46.543Z,31.05
2023-05-12T16:40:13.885Z,30.09
2023-05-12T16:42:40.831Z,29.43
2023-05-12T16:45:08.036Z,28.75
2023-05-12T16:47:34.819Z,28.32
2023-05-12T16:50:01.699Z,28.21
2023-05-12T16:52:28.469Z,27.60
2023-05-12T16:54:58.013Z,27.04
2023-05-12T16:57:24.597Z,27.18
2023-05-12T16:59:51.365Z,26.70
2023-05-12T17:02:18.083Z,26.24
2023-05-12T17:04:44.986Z,26.11
2023-05-12T17:07:11.807Z,25.99
2023-05-12T17:09:38.386Z,25.74
2023-05-12T17:12:06.883Z,25.65
2023-05-12T17:14:35.193Z,25.41
2023-05-12T17:17:02.448Z,24.80
2023-05-12T17:19:29.389Z,24.93
2023-05-12T17:21:56.270Z,24.56
2023-05-12T17:24:22.992Z,24.65
2023-05-12T17:26:49.881Z,24.41
2023-05-12T17:29:17.160Z,24.26
2023-05-12T17:31:43.918Z,23.73
2023-05-12T17:34:10.868Z,24.16
2023-05-12T17:36:37.565Z,23.91
2023-05-12T17:39:04.452Z,24.05
2023-05-12T17:41:31.113Z,23.86
2023-05-12T17:43:57.626Z,23.65
2023-05-12T17:46:24.323Z,23.61
2023-05-12T17:48:50.905Z,23.13
2023-05-12T17:51:17.800Z,23.24
2023-05-12T17:53:44.456Z,22.98
2023-05-12T17:56:11.638Z,22.88
2023-05-12T17:58:38.319Z,22.84
2023-05-12T18:01:05.006Z,22.60
2023-05-12T18:03:31.865Z,22.11
2023-05-12T18:05:58.489Z,22.33
2023-05-12T18:08:25.180Z,21.95
2023-05-12T18:10:51.963Z,22.25
2023-05-12T18:13:18.664Z,22.06
2023-05-12T18:15:45.282Z,21.85
2023-05-12T18:18:12.199Z,21.84
2023-05-12T18:20:38.931Z,21.90
2023-05-12T18:23:05.654Z,21.79
2023-05-12T18:25:32.322Z,21.61
2023-05-12T18:27:59.035Z,21.54
2023-05-12T18:30:25.858Z,21.49
2023-05-12T18:32:52.552Z,20.99
2023-05-12T18:35:19.918Z,21.27
2023-05-12T18:37:46.689Z,20.91
2023-05-12T18:40:13.232Z,21.12
2023-05-12T18:42:40.037Z,21.04
2023-05-12T18:45:07.446Z,20.57
2023-05-12T18:47:34.601Z,20.58
2023-05-12T18:50:01.371Z,20.39
2023-05-12T18:52:28.036Z,20.57
2023-05-12T18:54:54.665Z,20.40
2023-05-12T18:57:21.345Z,20.31
2023-05-12T18:59:50.098Z,20.19
2023-05-12T19:02:17.655Z,19.49
2023-05-12T19:04:45.443Z,20.03
2023-05-12T19:07:15.499Z,19.80
2023-05-12T19:09:43.210Z,19.68
2023-05-12T19:12:12.180Z,19.66
2023-05-12T19:14:40.246Z,19.60
2023-05-12T19:17:07.798Z,19.50
2023-05-12T19:19:34.929Z,19.46
2023-05-12T19:22:02.137Z,19.35
2023-05-12T19:24:30.043Z,19.21
2023-05-12T19:26:57.584Z,19.08
2023-05-12T19:29:24.307Z,19.05
2023-05-12T19:31:53.119Z,19.02
2023-05-12T19:34:20.167Z,18.95
2023-05-12T19:36:46.856Z,18.67
2023-05-12T19:39:13.518Z,18.70
2023-05-12T19:41:41.163Z,18.54
2023-05-12T19:44:07.811Z,18.14
2023-05-12T19:46:34.600Z,18.40
2023-05-12T19:49:01.327Z,18.07
2023-05-12T19:51:28.433Z,17.72
2023-05-12T19:53:55.169Z,18.03
2023-05-12T19:56:21.922Z,17.73
2023-05-12T19:58:48.579Z,17.69
2023-05-12T20:01:15.311Z,17.71
2023-05-12T20:03:41.916Z,17.70
2023-05-12T20:06:08.584Z,17.23
2023-05-12T20:08:35.212Z,17.69
2023-05-12T20:11:01.798Z,17.66
2023-05-12T20:13:28.349Z,17.62
2023-05-12T20:15:55.056Z,17.48
2023-05-12T20:18:23.377Z,17.57
2023-05-12T20:20:50.304Z,17.42
2023-05-12T20:23:16.919Z,16.97
2023-05-12T20:25:43.662Z,17.37
2023-05-12T20:28:11.799Z,17.26
2023-05-12T20:30:38.669Z,17.31
2023-05-12T20:33:05.446Z,17.18
2023-05-12T20:35:32.515Z,17.33
2023-05-12T20:37:59.472Z,17.18
2023-05-12T20:40:26.188Z,17.09
2023-05-12T20:42:53.216Z,17.15
2023-05-12T20:45:20.232Z,16.97
2023-05-12T20:47:47.223Z,17.00
2023-05-12T20:50:14.044Z,16.86
2023-05-12T20:52:41.748Z,16.93
2023-05-12T20:55:09.211Z,16.54
2023-05-12T20:57:36.147Z,16.86
2023-05-12T21:00:02.951Z,16.80
2023-05-12T21:02:29.774Z,16.64
2023-05-12T21:05:05.817Z,16.51
2023-05-12T21:07:32.728Z,16.80
2023-05-12T21:10:03.691Z,16.74
2023-05-12T21:12:30.506Z,16.57
2023-05-12T21:14:57.360Z,16.50
2023-05-12T21:17:24.001Z,16.60
2023-05-12T21:19:50.733Z,16.56
2023-05-12T21:22:17.827Z,16.11
2023-05-12T21:24:44.427Z,16.22
2023-05-12T21:27:11.688Z,15.92
2023-05-12T21:29:38.383Z,16.37
2023-05-12T21:32:05.309Z,16.22
2023-05-12T21:34:33.880Z,16.24
2023-05-12T21:37:00.499Z,16.04
2023-05-12T21:39:27.988Z,15.95
2023-05-12T21:41:54.800Z,15.90
2023-05-12T21:44:21.353Z,15.35
2023-05-12T21:46:48.139Z,15.83
2023-05-12T21:49:14.900Z,15.70
2023-05-12T21:51:42.053Z,15.62
2023-05-12T21:54:09.038Z,15.79
2023-05-12T21:56:35.804Z,15.32
2023-05-12T21:59:02.371Z,15.68
2023-05-12T22:01:29.983Z,15.65
2023-05-12T22:03:59.855Z,15.54
2023-05-12T22:06:27.034Z,15.55
2023-05-12T22:08:54.302Z,15.27
2023-05-12T22:11:21.741Z,15.28
2023-05-12T22:13:48.549Z,15.10
2023-05-12T22:16:15.512Z,15.46
2023-05-12T22:18:43.791Z,15.43
2023-05-12T22:21:10.925Z,15.34
2023-05-12T22:23:38.006Z,15.28
2023-05-12T22:26:04.685Z,15.20
2023-05-12T22:28:31.268Z,15.23
2023-05-12T22:30:57.920Z,15.06
2023-05-12T22:33:24.667Z,14.98
2023-05-12T22:35:51.649Z,15.08
2023-05-12T22:38:18.218Z,14.86
2023-05-12T22:40:44.826Z,15.00
2023-05-12T22:43:12.817Z,14.66
2023-05-12T22:45:39.513Z,14.92
2023-05-12T22:48:06.320Z,14.89
2023-05-12T22:50:32.956Z,14.60
2023-05-12T22:52:59.613Z,14.50
2023-05-12T22:55:30.439Z,14.82
2023-05-12T22:57:58.027Z,14.67
2023-05-12T23:00:24.651Z,14.67
2023-05-12T23:02:51.542Z,14.68
2023-05-12T23:05:18.169Z,14.62
2023-05-12T23:07:45.375Z,14.43
2023-05-12T23:10:12.113Z,14.44
2023-05-12T23:12:39.368Z,14.50
2023-05-12T23:15:07.850Z,14.47
2023-05-12T23:17:34.475Z,14.40
2023-05-12T23:20:01.079Z,14.34
2023-05-12T23:22:28.094Z,14.35
2023-05-12T23:24:55.170Z,14.33
2023-05-12T23:27:21.718Z,14.10
2023-05-12T23:29:48.291Z,14.17
2023-05-12T23:32:14.942Z,13.64
2023-05-12T23:34:41.695Z,13.76
2023-05-12T23:37:08.525Z,14.06
2023-05-12T23:39:35.312Z,13.14
2023-05-12T23:42:02.056Z,13.95
2023-05-12T23:44:28.610Z,13.82
2023-05-12T23:46:55.352Z,13.87
2023-05-12T23:49:22.022Z,13.81
2023-05-12T23:51:48.568Z,12.67
2023-05-12T23:54:15.221Z,13.82
2023-05-12T23:56:41.828Z,13.42
2023-05-12T23:59:09.063Z,13.72
